Port O'Connor, TX (77982)

3:23 AM CDT on August 04, 2015 (GMT -0500)
BB Upholstery | | Change Station
CLOSE
Current Station
Personal Weather Station
Location: Port O'Connor, TX
Elevation: 30 ft
Nearby Weather Stations

Elev 30 ft 28.44 °N, 96.43 °W | Updated 5 seconds ago

Mostly Cloudy
Mostly Cloudy
84.0 °F
Feels Like 96 °F
N
4.0
Wind Variable Wind from SSW
Gusts 12.0 mph

Today
High -- | Low -- °F
--% Chance of Precip.
Yesterday
High -- | Low -- °F
Precip. -- in
6:49 AM 8:14 PM
Waning Gibbous, 79% visible
Pressure 29.92 in
Visibility 10.0 miles
Clouds Mostly Cloudy 100 ft
Heat Index 96 °F
Dew Point 79 °F
Humidity 86%
Rainfall 0.00 in
Snow Depth Not available.
UV 0 out of 12
Pollen 4.20 out of 12
Air Quality Not available.
Flu Activity Not available.
METAR KPKV 040800Z AUTO 00000KT 10SM BKN001 26/24 A2992 RMK AO2

More Conditions Fewer Conditions

Pressure 29.92 in
Visibility 10.0 miles
Clouds Mostly Cloudy 100 ft
Heat Index 96 °F
Dew Point 79 °F
Humidity 86%
Rainfall 0.00 in
Snow Depth Not available.
UV 0 out of 12
Pollen 4.20 out of 12
Air Quality Not available.
Flu Activity Not available.
METAR KPKV 040800Z AUTO 00000KT 10SM BKN001 26/24 A2992 RMK AO2

More Conditions Fewer Conditions

Nowcast | as of 2:38 am CDT on August 4, 2015

Through 530 am...isolated showers and possible thunderstorms will continue to develop over the Gulf of Mexico. Brief moderate to heavy rainfall will be the main concern with the showers...as they move north around 30 knots. Most of the showers will weaken as they approach the coast...but could produce a quick couple of hundredths of an inch of rain. Locally heavier rainfall and an occasional cloud to water lightning strike can be expected with any thunderstorm which could develop.

×

10-Day Weather Forecast

×

Almanac

Astronomy

Aug. 04, 2015 Rise Set
Actual Time
Civil Twilight
Nautical Twilight
Astronomical Twilight
Moon
Length of Visible Light
Length of Day
Tomorrow will be .
, % of the Moon is Illuminated

Today's Extremes

State Highs State Lows

Community

WunderPhotos

Upload Photos

1,843,877 photos uploaded!

WunderBlogs® & News

Nearby

Air Quality

  Air Quality AQ Index Pollutant
Not available.

Snow Depth

Station Depth Elevation

Earthquake Activity

City Distance Mag. Time & Date
Minimum magnitude displayed is 2.5.

Coastal Water Temperatures

Place Temperature

Stations

Nearby Weather Stations

Station Location Temp. Windchill Dew Point Humidity Wind Precip. Elev Updated Type